x

9439040 - Astoria, Or (asto3) Weather Station

7:30 - Sun 23rd Apr 2017 All times are PDT. -7 hours from GMT.

  • Wind
    11mph, 16mph gusts
  • Sea Temp 51°f
  • Aire Temp 49°f
  • Sea Pressure 1009.9mb
  • 9439040 - Astoria, Or
  • 9439040 - Astoria, Or

More Historic Weather Station data

Upgrade to MSW Pro to gain access to the past 30 days of data for over 8000 Wavebouys and Weather Stations around the globe.

Join Pro

Comparision Forecast

View Surf forecast
   
dom 04/23 7:30 11 16 mph 1009.9mb 51f 49f
7:24 11 15 mph 1010mb 51f 49f
7:18 11 16 mph 1009.9mb 51f 49f
7:12 14 18 mph 1010mb 51f 49f
7:06 8 14 mph 1010.1mb 51f 49f
7:00 7 13 mph 1010.1mb 51f 49f
6:54 13 17 mph 1010.2mb 51f 49f
6:48 10 17 mph 1010.3mb 51f 49f
6:42 13 17 mph 1010.4mb 51f 49f
6:36 9 13 mph 1010.4mb 51f 49f
6:30 8 11 mph 1010.3mb 51f 49f
6:24 11 20 mph 1010.3mb 51f 49f
6:18 7 14 mph 1010.5mb 51f 49f
6:12 9 14 mph 1010.5mb 51f 49f
6:06 10 14 mph 1010.5mb 51f 49f
6:00 11 15 mph 1010.6mb 51f 49f
5:48 7 14 mph 1010.7mb 51f 49f
5:42 7 14 mph 1010.7mb 51f 49f
5:36 8 14 mph 1010.8mb 51f 49f
5:30 11 17 mph 1010.8mb 51f 49f
5:24 10 15 mph 1010.9mb 51f 49f
5:18 10 15 mph 1011mb 51f 49f
5:12 8 15 mph 1011.1mb 51f 49f
5:06 10 18 mph 1011mb 51f 49f
5:00 10 18 mph 1011mb 51f 49f
4:48 14 17 mph 1011mb 51f 49f
4:42 11 15 mph 1011.1mb 51f 49f
4:36 10 20 mph 1011.1mb 51f 49f
4:30 11 17 mph 1011.2mb 51f 49f
4:24 13 18 mph 1011.3mb 51f 49f
4:18 14 21 mph 1011.2mb 51f 49f
4:12 16 20 mph 1011.3mb 51f 50f
4:06 10 15 mph 1011.3mb 51f 49f
4:00 13 18 mph 1011.3mb 51f 49f
3:54 11 14 mph 1011.3mb 51f 49f
3:48 13 18 mph 1011.3mb 51f 50f
3:42 14 23 mph 1011.3mb 51f 50f
3:36 18 24 mph 1011.4mb 51f 50f
3:30 17 25 mph 1011.4mb 51f 50f
3:24 11 15 mph 1011.4mb 51f 50f
3:18 13 16 mph 1011.4mb 51f 49f
3:12 14 23 mph 1011.4mb 51f 49f
3:06 14 21 mph 1011.4mb 51f 49f
3:00 13 20 mph 1011.4mb 51f 50f
2:54 13 18 mph 1011.4mb 51f 50f
2:48 17 26 mph 1011.4mb 51f 50f
2:42 13 16 mph 1011.4mb 51f 49f
2:30 10 18 mph 1011.5mb 51f 49f
2:24 10 17 mph 1011.6mb 51f 49f
2:18 11 21 mph 1011.6mb 51f 49f
2:12 13 18 mph 1011.6mb 51f 49f
2:06 10 18 mph 1011.6mb 51f 49f
2:00 13 20 mph 1011.6mb 51f 49f
1:54 13 15 mph 1011.6mb 51f 49f
1:48 10 18 mph 1011.6mb 51f 49f
1:42 14 18 mph 1011.6mb 51f 48f
1:30 14 22 mph 1011.6mb 51f 49f
1:24 13 20 mph 1011.5mb 51f 50f
1:18 14 16 mph 1011.4mb 51f 50f
1:12 14 29 mph 1011.5mb 51f 50f
1:06 10 22 mph 1011.5mb 51f 50f
1:00 10 15 mph 1011.5mb 51f 50f
12:54 14 18 mph 1011.5mb 51f 50f
12:48 14 22 mph 1011.6mb 51f 49f
12:42 14 20 mph 1011.5mb 51f 49f
12:30 16 21 mph 1011.5mb 51f 50f
12:24 16 21 mph 1011.4mb 51f 50f
12:18 16 22 mph 1011.4mb 51f 50f
12:12 11 15 mph 1011.4mb 51f 50f
12:06 14 18 mph 1011.3mb 51f 50f
12:00 10 17 mph 1011.3mb 51f 50f
11:54 14 20 mph 1011.3mb 51f 50f
11:48 11 18 mph 1011.3mb 51f 50f
11:42 13 21 mph 1011.2mb 51f 51f
11:36 13 17 mph 1011.3mb 51f 51f
11:30 10 16 mph 1011.3mb 51f 51f
11:24 9 14 mph 1011.3mb 51f 51f
11:18 10 17 mph 1011.3mb 51f 51f
11:12 13 18 mph 1011.2mb 51f 51f
11:06 14 18 mph 1011.2mb 51f 51f
11:00 9 15 mph 1011.2mb 51f 51f
10:54 8 16 mph 1011.2mb 51f 50f
10:48 10 18 mph 1011.2mb 51f 50f
10:42 11 18 mph 1011.3mb 51f 50f
10:30 8 14 mph 1011.3mb 51f 50f
10:24 8 15 mph 1011.3mb 51f 50f
10:18 9 13 mph 1011.2mb 51f 50f
10:12 7 11 mph 1011.2mb 51f 50f
10:06 3 6 mph 1011.1mb 51f 50f
10:00 3 8 mph 1011mb 51f 50f
9:54 5 7 mph 1011mb 51f 50f
9:48 6 8 mph 1010.9mb 51f 51f
9:42 6 8 mph 1010.9mb 51f 51f
9:36 6 8 mph 1010.8mb 51f 51f
9:30 3 7 mph 1010.9mb 51f 50f
9:24 5 6 mph 1010.9mb 51f 50f
9:18 3 5 mph 1010.9mb 51f 50f
9:12 2 3 mph 1011mb 51f 50f
9:06 2 5 mph 1011mb 51f 50f
9:00 1 6 mph 1011mb 51f 50f
8:54 3 6 mph 1011mb 51f 49f
8:48 2 5 mph 1011mb 51f 49f
8:42 1 3 mph 1011mb 51f 49f
8:36 1 2 mph 1011mb 51f 49f
8:30 1 2 mph 1011.1mb 51f 49f
8:24  -  2 mph 1011.1mb 51f 49f
8:18 2 5 mph 1011.1mb 51f 48f
8:12 3 6 mph 1011.2mb 51f 49f
8:06 2 7 mph 1011.2mb 51f 48f
8:00 3 8 mph 1011.3mb 51f 48f
7:54 3 7 mph 1011.4mb 51f 48f
7:48 3 9 mph 1011.5mb 51f 48f
7:42 6 7 mph 1011.4mb 51f 48f
7:36 2 7 mph 1011.5mb 51f 48f
7:30 5 8 mph 1011.5mb 51f 48f
7:24 2 8 mph 1011.5mb 51f 48f
7:18 2 6 mph 1011.6mb 51f 48f
7:12 3 6 mph 1011.6mb 51f 48f
7:06 1 6 mph 1011.7mb 51f 48f
7:00 2 6 mph 1011.7mb 51f 48f
6:54 2 6 mph 1011.7mb 51f 48f
6:48 5 6 mph 1011.7mb 51f 48f
6:42 2 5 mph 1011.8mb 51f 48f
6:36 1 5 mph 1011.8mb 51f 48f
6:30 2 5 mph 1011.8mb 51f 48f
6:24 2 6 mph 1011.9mb 51f 48f
6:18 2 5 mph 1011.9mb 51f 48f
6:12 5 8 mph 1012mb 51f 48f
6:06 3 8 mph 1012.1mb 51f 48f
6:00 2 6 mph 1012.2mb 51f 48f
5:54 2 5 mph 1012.2mb 51f 48f
5:48 2 5 mph 1012.2mb 51f 48f
5:42 1 5 mph 1012.2mb 51f 47f
5:36 3 6 mph 1012.3mb 51f 47f
5:30 5 6 mph 1012.4mb 51f 47f
5:24 5 6 mph 1012.4mb 51f 47f
5:18 5 7 mph 1012.5mb 51f 47f
5:12 2 5 mph 1012.5mb 51f 47f
5:06 2 6 mph 1012.6mb 51f 47f
5:00 3 7 mph 1012.6mb 51f 47f
4:54 1 2 mph 1012.5mb 51f 47f
4:48 2
mph
1012.5mb 51f 47f
4:42 2
mph
1012.7mb 51f 47f
4:36 1 3 mph 1012.8mb 51f 47f
4:30 2 3 mph 1012.9mb 51f 47f
4:24 3 5 mph 1012.9mb 51f 47f
4:18 3 7 mph 1013mb 51f 47f
4:12 5 7 mph 1013.1mb 51f 47f
4:06 2 3 mph 1013.1mb 51f 47f
4:00 3 5 mph 1013.1mb 51f 47f
3:54 2 5 mph 1013.1mb 51f 47f
3:48 3 7 mph 1013.2mb 51f 47f
3:42 2 3 mph 1013.3mb 51f 47f
3:36 2
mph
1013.4mb 51f 47f
3:30 2 7 mph 1013.4mb 51f 48f
3:24 5 8 mph 1013.5mb 51f 48f
3:18 5 8 mph 1013.6mb 51f 48f
3:12 6 7 mph 1013.7mb 51f 48f
3:06 6 7 mph 1013.7mb 51f 48f
3:00 5 6 mph 1013.8mb 51f 48f
2:54 6
mph
1013.8mb 51f 48f
2:48 5 6 mph 1013.7mb 51f 48f
2:42 3 5 mph 1013.7mb 51f 48f
2:36 5 6 mph 1013.8mb 51f 48f
2:30 5
mph
1013.8mb 51f 48f
2:24 3 5 mph 1013.9mb 51f 48f
2:18 2 7 mph 1014mb 51f 47f
2:12 5 6 mph 1014.1mb 51f 47f
2:06 5 6 mph 1014.2mb 51f 48f
2:00 5 7 mph 1014.2mb 51f 48f
1:54 5 6 mph 1014.2mb 51f 48f
1:48 5 7 mph 1014.2mb 51f 48f
1:42 2 5 mph 1014.3mb 51f 48f
1:36 2 5 mph 1014.3mb 51f 48f
1:30 5 6 mph 1014.4mb 51f 48f
1:24 5 6 mph 1014.3mb 51f 48f
1:18 6 7 mph 1014.3mb 51f 48f
1:12 3 5 mph 1014.3mb 51f 48f
1:06 2 5 mph 1014.3mb 51f 48f
1:00 3 5 mph 1014.4mb 51f 48f
12:54 2 5 mph 1014.3mb 51f 48f
12:48 2 3 mph 1014.4mb 51f 48f
12:42 2 5 mph 1014.4mb 51f 48f
12:36 3 5 mph 1014.4mb 51f 48f
12:30 3 6 mph 1014.4mb 51f 48f
12:24 3 5 mph 1014.4mb 51f 49f
12:18  -  1 mph 1014.3mb 51f 49f
12:12  -  1 mph 1014.3mb 51f 49f
12:06 1 3 mph 1014.4mb 51f 49f
12:00 2 3 mph 1014.4mb 51f 49f
sáb 04/22 11:54 2 3 mph 1014.5mb 51f 49f
11:48 2
mph
1014.6mb 51f 49f
11:42 2 5 mph 1014.6mb 51f 49f
11:36 3 5 mph 1014.6mb 51f 49f
11:30 3
mph
1014.7mb 51f 49f
11:24 2 3 mph 1014.7mb 51f 49f
11:18 3 6 mph 1014.7mb 51f 49f
11:12 5 6 mph 1014.8mb 51f 49f
11:06 5 7 mph 1014.8mb 51f 49f
11:00 5 7 mph 1014.9mb 51f 50f
10:54 5 8 mph 1014.9mb 51f 50f
10:48 6 9 mph 1014.9mb 51f 50f
10:42 6 9 mph 1014.9mb 51f 51f
10:36 6 8 mph 1014.9mb 51f 51f
10:30 7 9 mph 1015mb 51f 51f
10:24 7 10 mph 1015mb 51f 51f
10:18 6 9 mph 1015mb 51f 50f
10:12 6 7 mph 1015mb 51f 50f
10:06 7 9 mph 1014.9mb 51f 51f
10:00 6 7 mph 1014.9mb 51f 51f
9:54 5 7 mph 1015mb 51f 51f
9:48 5 7 mph 1015mb 51f 51f
9:42 6 7 mph 1015mb 51f 51f
9:36 6 7 mph 1014.9mb 51f 51f
9:30 6 9 mph 1014.8mb 51f 51f
9:24 6 8 mph 1014.8mb 51f 51f
9:18 5 8 mph 1014.8mb 51f 51f
9:12 6 9 mph 1014.7mb 51f 51f
9:06 6 11 mph 1014.7mb 51f 51f
9:00 6 11 mph 1014.7mb 51f 51f
8:54 5 9 mph 1014.7mb 51f 52f
8:48 7 9 mph 1014.6mb 51f 52f
8:42 8 13 mph 1014.6mb 51f 52f
8:36 9 14 mph 1014.6mb 51f 52f
8:30 11 16 mph 1014.5mb 51f 52f
8:24 9 16 mph 1014.4mb 51f 52f
8:18 8 14 mph 1014.4mb 51f 52f
8:12 13 16 mph 1014.4mb 51f 52f
8:06 10 18 mph 1014.3mb 51f 52f
8:00 11 17 mph 1014.3mb 51f 53f
7:54 9 15 mph 1014.2mb 52f 53f
7:48 13 21 mph 1014.2mb 52f 53f
7:42 13 17 mph 1014.3mb 52f 53f
7:36 9 16 mph 1014.3mb 52f 53f
7:30 10 14 mph 1014.2mb 52f 53f
7:24 13 21 mph 1014.1mb 52f 53f
7:18 8 11 mph 1014.2mb 52f 54f
7:12 8 14 mph 1014.2mb 52f 54f
7:06 9 21 mph 1014.1mb 52f 54f
7:00 13 17 mph 1014.2mb 52f 54f
6:54 13 20 mph 1014.1mb 52f 53f
6:48 17 23 mph 1014.1mb 52f 53f
6:42 14 22 mph 1014.1mb 52f 53f
6:36 18 23 mph 1014mb 52f 53f
6:30 17 25 mph 1014mb 52f 53f
6:24 18 26 mph 1014mb 52f 53f
6:18 15 22 mph 1014mb 52f 53f
6:12 16 29 mph 1014mb 52f 53f
6:06 21 24 mph 1014mb 52f 54f
6:00 21 26 mph 1014mb 52f 54f
5:48 18 25 mph 1014mb 52f 54f
5:42 16 28 mph 1013.9mb 52f 54f
5:36 16 26 mph 1013.9mb 52f 54f
5:30 15 25 mph 1013.9mb 52f 54f
5:24 20 26 mph 1013.9mb 52f 54f
5:18 15 23 mph 1013.9mb 52f 54f
5:12 21 25 mph 1013.9mb 52f 54f
5:06 16 21 mph 1014mb 52f 54f
5:00 18 28 mph 1014mb 52f 54f
4:48 11 21 mph 1014mb 51f 55f
4:42 21 26 mph 1014mb 51f 54f
4:36 20 29 mph 1014mb 51f 54f
4:30 18 24 mph 1014mb 51f 54f
4:24 13 22 mph 1013.9mb 51f 54f
4:00 15 30 mph 1013.6mb 51f 52f
3:48 18 24 mph 1013.5mb 51f 52f
3:42 15 30 mph 1013.6mb 51f 52f
3:36 20 29 mph 1013.6mb 51f 52f
3:30 22 30 mph 1013.6mb 51f 52f
3:24 18 24 mph 1013.4mb 51f 53f
3:18 18 32 mph 1013.3mb 51f 54f
3:12 17 23 mph 1013.2mb 51f 54f
3:06 10 18 mph 1013.1mb 51f 53f
3:00 18 26 mph 1013mb 51f 53f
2:54 16 24 mph 1012.9mb 51f 53f
2:48 15 21 mph 1012.8mb 51f 53f
2:42 14 20 mph 1012.8mb 51f 53f
2:36 13 23 mph 1012.8mb 51f 53f
2:30 14 18 mph 1012.8mb 51f 53f
2:24 13 20 mph 1012.7mb 51f 53f
2:18 14 18 mph 1012.6mb 51f 53f
2:12 14 22 mph 1012.4mb 51f 53f
2:06 13 17 mph 1012.3mb 51f 53f
2:00 20 24 mph 1012.2mb 51f 53f
1:54 11 22 mph 1012.2mb 51f 53f
1:48 17 29 mph 1012.1mb 51f 53f
1:42 15 24 mph 1012.1mb 51f 53f
1:30 14 24 mph 1011.7mb 51f 52f
1:24 17 25 mph 1011.6mb 51f 52f
1:18 21 26 mph 1011.4mb 51f 53f
1:12 16 29 mph 1011.2mb 51f 52f
1:06 24 32 mph 1011mb 51f 52f
1:00 21 30 mph 1011mb 51f 52f
12:54 17 26 mph 1010.9mb 51f 52f
12:48 18 25 mph 1010.9mb 51f 52f
12:42 15 30 mph 1010.8mb 51f 52f
12:36 20 37 mph 1010.7mb 51f 51f
12:30 22 37 mph 1010.5mb 51f 52f
12:24 14 24 mph 1010.4mb 51f 52f
12:18 15 22 mph 1010.2mb 51f 52f
12:12 6 9 mph 1010mb 51f 51f
12:06 5 9 mph 1009.9mb 51f 51f
12:00 7 10 mph 1009.9mb 51f 51f
11:54 8 10 mph 1009.8mb 51f 51f
11:48 5 7 mph 1009.7mb 51f 51f
11:42 5 9 mph 1009.4mb 51f 51f
11:36 7 11 mph 1009.1mb 51f 51f
11:30 8 11 mph 1009mb 51f 52f
11:24 6 8 mph 1009.2mb 51f 52f
11:18 7 11 mph 1009.2mb 51f 52f
11:12 6 14 mph 1009.1mb 51f 52f
11:06 2 5 mph 1008.9mb 51f 53f
11:00 2 7 mph 1008.8mb 51f 53f
10:54 5 13 mph 1008.7mb 51f 53f
10:48 6 11 mph 1008.8mb 51f 53f
10:42 7 10 mph 1008.8mb 51f 52f
10:36 6 8 mph 1008.8mb 51f 53f
10:30 6 7 mph 1008.9mb 51f 53f
10:24 3 6 mph 1009mb 51f 52f
10:18 3 6 mph 1009mb 51f 52f
10:12 2 8 mph 1009mb 51f 51f
10:06 5 9 mph 1008.8mb 51f 51f
10:00 5 11 mph 1008.8mb 51f 51f
9:54 3 8 mph 1008.7mb 51f 51f
9:48 2 8 mph 1008.4mb 51f 51f
9:42 3 13 mph 1008.5mb 51f 51f
9:36 3 10 mph 1008.6mb 51f 51f
9:30 2 7 mph 1008.5mb 51f 51f
9:24 7 10 mph 1008.4mb 51f 51f
9:18 1 5 mph 1008.3mb 51f 50f
9:12 1 3 mph 1008.3mb 51f 50f
9:06 3 7 mph 1008.4mb 51f 50f
9:00 2 5 mph 1008.4mb 51f 50f
8:54 2 3 mph 1008.4mb 51f 50f
8:48 2 5 mph 1008.5mb 51f 50f
8:42 3
mph
1008.7mb 51f 49f
8:36 1 3 mph 1008.9mb 51f 50f
8:30 3 6 mph 1008.8mb 51f 50f
8:24 5 6 mph 1008.5mb 51f 50f
8:18 5 6 mph 1008.4mb 51f 49f
8:12 2 3 mph 1008.7mb 51f 49f
8:06 3 5 mph 1008.8mb 51f 50f
8:00 2 5 mph 1008.8mb 51f 49f
7:54 3 5 mph 1008.7mb 51f 49f
7:48 2 8 mph 1008.7mb 51f 50f
7:42 5 10 mph 1008.7mb 51f 50f
7:36 3 6 mph 1009.1mb 51f 50f
7:30 2 7 mph 1009mb 51f 51f
7:24 6 14 mph 1009.2mb 51f 52f
7:18 9 15 mph 1009.5mb 51f 52f
7:12 9 15 mph 1009.4mb 51f 52f
7:06 8 14 mph 1009mb 51f 52f
7:00 13 17 mph 1008.8mb 51f 53f
6:54 16 21 mph 1008.7mb 51f 54f
6:48 14 22 mph 1008.8mb 51f 55f
6:42 17 23 mph 1008.7mb 51f 56f
6:36 15 22 mph 1008.5mb 51f 56f
6:30 14 21 mph 1008.4mb 51f 56f
6:24 16 23 mph 1008.1mb 51f 56f
6:18 14 22 mph 1008.1mb 51f 56f
6:12 17 24 mph 1008.2mb 51f 56f
6:06 21 26 mph 1008.2mb 51f 56f
6:00 16 22 mph 1007.9mb 51f 56f
5:48 17 22 mph 1007.6mb 51f 57f
5:42 7 14 mph 1007.5mb 51f 58f
5:36  -  2 mph 1007.3mb 51f 56f
5:30 6 14 mph 1007.2mb 51f 55f
5:24 6 7 mph 1007mb 51f 58f
5:18 2 7 mph 1006.5mb 51f 58f
5:12 7 13 mph 1006.4mb 51f 58f
5:06 7 11 mph 1006.4mb 51f 58f
5:00 10 16 mph 1006.4mb 51f 58f
4:54 2 5 mph 1006.2mb 51f 56f
4:48 6 7 mph 1006.2mb 51f 56f
4:42 5 9 mph 1006.3mb 51f 57f
4:36 2 11 mph 1006.4mb 51f 57f
4:30 5 10 mph 1006.5mb 51f 58f
4:24 6 10 mph 1006.3mb 51f 57f
4:18 5 13 mph 1006.4mb 51f 57f
4:12 6 13 mph 1006.3mb 51f 57f
4:06 8 13 mph 1006.3mb 51f 57f
4:00 7 11 mph 1006.4mb 51f 57f
3:54 8 14 mph 1006.4mb 51f 58f
3:48 5 10 mph 1006.5mb 51f 57f
3:42 6 11 mph 1006.9mb 51f 57f
3:36 6 10 mph 1007mb 51f 57f
3:30 8 13 mph 1007.1mb 51f 57f
3:24 8 13 mph 1007mb 51f 57f
3:18 7 13 mph 1007.4mb 51f 57f
3:12 8 11 mph 1007.4mb 51f 58f
3:06 10 15 mph 1007.5mb 51f 58f
3:00 7 10 mph 1007.6mb 51f 59f
2:54 8 11 mph 1007.8mb 51f 59f
2:48 8 13 mph 1007.9mb 51f 58f
2:42 7 14 mph 1007.9mb 51f 59f
2:36 5 13 mph 1008.1mb 51f 58f
2:30 7 13 mph 1008.2mb 51f 58f
2:24 6 9 mph 1008.4mb 51f 58f
2:18 6 9 mph 1008.6mb 51f 58f
2:12 6 10 mph 1008.7mb 51f 57f
2:06 7 9 mph 1008.7mb 51f 57f
2:00 7 10 mph 1009mb 51f 58f
1:54 6 9 mph 1009.1mb 51f 57f
1:48 6 8 mph 1009.2mb 51f 57f
1:42 6 11 mph 1009.3mb 51f 58f
1:36 8 14 mph 1009.4mb 51f 59f
1:30 2 6 mph 1009.5mb 51f 57f
1:24 2 7 mph 1009.7mb 51f 56f
1:18 5 7 mph 1009.9mb 51f 57f
1:12 5 11 mph 1010mb 51f 58f
1:06 3 10 mph 1009.9mb 51f 56f
1:00 7 10 mph 1010.1mb 51f 58f
12:54 6 9 mph 1010.2mb 51f 57f
12:48 8 10 mph 1010.4mb 51f 58f
12:42 3 8 mph 1010.4mb 51f 57f
12:36 7 13 mph 1010.4mb 51f 58f
12:30 9 14 mph 1010.3mb 51f 59f
12:24 8 14 mph 1010.3mb 51f 59f
12:18 8 11 mph 1010.4mb 51f 58f
12:12 7 10 mph 1010.7mb 51f 58f
12:06 6 8 mph 1011.1mb 51f 58f
12:00 1 5 mph 1011.2mb 51f 56f
vie 04/21 11:54 3 7 mph 1011.3mb 51f 57f
11:48 2 7 mph 1011.4mb 51f 56f
11:42 5 10 mph 1011.5mb 51f 57f
11:36 5 7 mph 1011.5mb 51f 58f
11:30 1 7 mph 1011.5mb 51f 57f
11:24 5 10 mph 1011.4mb 51f 59f
11:18 6 9 mph 1011.4mb 51f 58f
11:12 3 6 mph 1011.7mb 51f 57f
11:06 1 2 mph 1012mb 51f 56f
11:00 2 3 mph 1012.4mb 52f 56f
10:54 1 6 mph 1012.5mb 52f 57f
10:48 5 8 mph 1012.4mb 51f 57f
10:42 3 6 mph 1012.4mb 51f 57f
10:36  -  6 mph 1012.5mb 51f 57f
10:30 3 8 mph 1012.7mb 51f 57f
10:24  -  6 mph 1012.7mb 52f 58f
10:18  -  2 mph 1012.9mb 52f 57f
10:12  -  5 mph 1013.1mb 52f 58f
10:06 5 8 mph 1013.3mb 52f 58f
10:00 3 10 mph 1013.2mb 52f 60f
9:54 2 3 mph 1013.2mb 52f 58f
9:48  -  5 mph 1013.4mb 52f 59f
9:42 1 3 mph 1013.4mb 52f 59f
9:36 1 6 mph 1013.5mb 52f 59f
9:30 2 3 mph 1013.6mb 52f 60f
9:24 3 6 mph 1013.7mb 52f 59f
9:18  -  3 mph 1013.8mb 52f 58f
9:12 3 6 mph 1013.7mb 52f 58f
9:06 3 6 mph 1013.7mb 52f 58f
9:00  -  1 mph 1013.8mb 52f 58f
8:54  -  2 mph 1014mb 52f 59f
8:48 2
mph
1014.1mb 52f 58f
8:42  -  1 mph 1014.2mb 52f 59f
8:36 1 5 mph 1014.3mb 52f 59f
8:30 1 3 mph 1014.5mb 52f 59f
8:24 1 5 mph 1014.6mb 52f 59f
8:18 2 5 mph 1014.6mb 52f 58f
8:12 2 5 mph 1014.6mb 52f 59f
8:06 3 7 mph 1014.7mb 52f 59f
8:00  -  2 mph 1014.8mb 52f 60f
7:54 1 2 mph 1014.9mb 52f 60f
7:48 3 7 mph 1015mb 52f 60f
7:42 1 6 mph 1015mb 52f 61f
7:36 2 6 mph 1015.1mb 52f 62f
7:30 2 8 mph 1015.2mb 52f 60f
7:24 5 7 mph 1015.3mb 52f 63f
7:18 5 6 mph 1015.4mb 52f 62f
7:12 2 5 mph 1015.5mb 52f 63f
7:06 5 8 mph 1015.5mb 52f 62f
7:00 8 10 mph 1015.5mb 52f 63f
6:54 1 8 mph 1015.7mb 52f 63f
6:48 2 5 mph 1015.9mb 52f 65f
6:42 3 7 mph 1016mb 52f 65f
6:36 6 7 mph 1016.2mb 52f 65f
6:30 3 6 mph 1016.3mb 52f 65f
6:24 2 5 mph 1016.4mb 52f 65f
6:18 3 8 mph 1016.5mb 52f 64f
6:12 2 6 mph 1016.6mb 52f 64f
6:06 5 7 mph 1016.6mb 53f 64f
6:00 2 7 mph 1016.7mb 53f 66f
5:48 3 9 mph 1017mb 52f 66f
5:42 3 6 mph 1017.2mb 52f 66f
5:36 2 9 mph 1017.2mb 52f 66f
5:30 5 9 mph 1017.2mb 52f 67f
5:24 2 7 mph 1017.4mb 52f 67f
5:18 3 15 mph 1017.5mb 52f 67f
5:12 3 7 mph 1017.6mb 51f 67f
5:06 3 5 mph 1017.7mb 51f 67f
5:00 1 5 mph 1017.8mb 51f 66f
4:48 1 5 mph 1018mb 51f 65f
4:42 2 6 mph 1018.1mb 51f 65f
4:36 2 10 mph 1018.1mb 51f 65f
4:30 5 7 mph 1018.3mb 51f 64f
4:24 2 8 mph 1018.2mb 51f 64f
4:00 7 9 mph 1018.6mb 51f 63f
3:54 6 9 mph 1018.8mb 51f 63f
3:48 7 10 mph 1018.8mb 51f 63f
3:42 6 9 mph 1018.9mb 51f 63f
3:36 6 10 mph 1019mb 51f 63f
3:30 7 13 mph 1019.2mb 51f 63f
3:24 8 11 mph 1019.3mb 51f 62f
3:18 8 11 mph 1019.5mb 51f 63f
3:12 3 9 mph 1019.7mb 51f 63f
3:06 7 15 mph 1019.7mb 51f 62f
3:00 7 11 mph 1019.8mb 51f 61f
2:48 2 9 mph 1020.3mb 51f 62f
2:42 5 10 mph 1020.4mb 51f 62f
2:36 6 14 mph 1020.4mb 51f 61f
2:30 5 9 mph 1020.5mb 51f 60f
2:24 6 13 mph 1020.6mb 51f 60f
2:18 9 14 mph 1020.6mb 51f 60f
2:12 9 17 mph 1020.8mb 51f 59f
2:06 9 13 mph 1020.9mb 51f 59f
2:00 9 14 mph 1021.2mb 51f 58f
1:54 9 14 mph 1021.2mb 51f 58f
1:48 8 16 mph 1021.4mb 51f 58f
1:42 9 16 mph 1021.3mb 51f 58f
1:36 13 17 mph 1021.5mb 51f 57f
1:30 9 14 mph 1021.8mb 51f 57f
1:24 7 13 mph 1022mb 51f 57f
1:18 8 11 mph 1022.2mb 51f 57f
1:12 9 14 mph 1022.3mb 51f 57f
1:06 6 10 mph 1022.5mb 51f 57f
1:00 9 14 mph 1022.5mb 51f 56f
12:54 8 11 mph 1022.6mb 51f 56f
12:48 5 9 mph 1022.6mb 51f 56f
12:42 8 11 mph 1022.7mb 51f 56f
12:36 5 10 mph 1022.9mb 51f 56f
12:30 7 11 mph 1023mb 51f 55f
12:24 6 13 mph 1023.1mb 51f 54f
12:18 6 10 mph 1023.3mb 51f 53f
12:12 8 13 mph 1023.4mb 51f 53f
12:06 9 16 mph 1023.5mb 51f 52f
12:00 8 16 mph 1023.7mb 51f 52f
11:54 10 14 mph 1023.7mb 51f 51f
11:48 9 14 mph 1023.9mb 51f 51f
11:42 9 15 mph 1024mb 50f 51f
11:36 6 11 mph 1024.2mb 51f 51f
11:30 9 14 mph 1024.3mb 50f 50f
11:24 9 14 mph 1024.4mb 50f 49f
11:18 11 15 mph 1024.5mb 50f 49f
11:12 9 14 mph 1024.7mb 50f 49f
11:06 5 10 mph 1024.8mb 50f 50f
11:00 7 11 mph 1024.8mb 50f 49f
10:54 8 13 mph 1024.9mb 50f 49f
10:48 7 11 mph 1025mb 50f 48f
10:42 7 11 mph 1025.2mb 50f 48f
10:36 6 7 mph 1025.3mb 50f 48f
10:30 3 7 mph 1025.5mb 50f 48f
10:24 6 8 mph 1025.5mb 50f 47f
10:18 5 9 mph 1025.6mb 50f 47f
10:12 6 10 mph 1025.8mb 50f 46f
10:06 6 11 mph 1026mb 50f 46f
10:00 6 9 mph 1026.1mb 50f 46f
9:54 6 10 mph 1026.2mb 50f 46f
9:48 5 9 mph 1026.3mb 50f 46f
9:42 5 7 mph 1026.4mb 50f 45f
9:36 3 6 mph 1026.6mb 50f 45f
9:30 2 7 mph 1026.7mb 50f 45f
9:24 5 9 mph 1026.8mb 50f 45f
9:18 2 7 mph 1026.9mb 50f 44f
9:12 2 7 mph 1027.1mb 50f 44f
9:06 5 7 mph 1027.1mb 50f 44f
9:00 3 7 mph 1027.2mb 50f 44f
8:54 6 8 mph 1027.3mb 50f 43f
8:48 7 11 mph 1027.4mb 50f 43f
8:42 6 11 mph 1027.5mb 50f 43f
8:36 7 14 mph 1027.6mb 50f 43f
8:30 10 16 mph 1027.7mb 50f 42f
8:24 10 14 mph 1027.7mb 50f 42f
8:18 10 13 mph 1027.9mb 50f 42f
8:12 9 11 mph 1027.9mb 50f 42f
8:06 8 14 mph 1028mb 50f 43f
8:00 9 13 mph 1028mb 50f 43f
7:54 10 13 mph 1028.1mb 50f 43f
7:48 9 13 mph 1028.1mb 50f 43f
7:42 8 13 mph 1028mb 50f 43f
7:36 10 13 mph 1028.1mb 50f 43f
7:30 10 15 mph 1028.1mb 50f 42f
7:24 10 14 mph 1028.1mb 50f 42f
7:18 10 14 mph 1028.1mb 50f 43f
7:12 9 14 mph 1028.1mb 50f 42f
7:06 9 15 mph 1028.1mb 50f 42f
7:00 10 15 mph 1028.1mb 50f 43f
6:30 6 9 mph 1028.3mb 50f 43f
6:24 8 11 mph 1028.3mb 50f 43f
6:18 7 9 mph 1028.3mb 50f 43f
6:12 6 8 mph 1028.4mb 50f 43f
6:06 1 9 mph 1028.4mb 50f 43f
6:00 5 6 mph 1028.4mb 50f 43f
5:54 3 8 mph 1028.4mb 50f 43f
5:48 1 6 mph 1028.4mb 50f 43f
5:42 5 7 mph 1028.3mb 50f 43f
5:36  -  7 mph 1028.4mb 50f 43f
5:30 5 7 mph 1028.3mb 50f 43f
5:24 1 3 mph 1028.3mb 50f 43f
5:18 2 6 mph 1028.3mb 50f 43f
5:12 3 5 mph 1028.4mb 50f 43f
5:06 2 3 mph 1028.5mb 50f 43f
5:00  -  1 mph 1028.5mb 50f 43f
4:54  -  3 mph 1028.5mb 50f 44f
4:48  -  2 mph 1028.6mb 50f 43f
4:42 1 3 mph 1028.7mb 50f 44f
4:36 2 6 mph 1028.8mb 50f 44f
4:30 3 5 mph 1028.8mb 50f 44f
4:24 2 7 mph 1028.8mb 50f 44f
4:18 6 7 mph 1028.7mb 50f 44f
4:12 2 3 mph 1028.7mb 50f 44f
4:06 2 6 mph 1028.8mb 50f 44f
4:00 6 8 mph 1028.8mb 50f 44f
3:54 5 6 mph 1028.9mb 50f 44f
3:48 5 6 mph 1029mb 50f 45f
3:42 3 6 mph 1029.1mb 50f 45f
3:36  -  2 mph 1029.1mb 50f 45f
3:30 2 3 mph 1029.1mb 50f 46f
3:24 1 2 mph 1029.1mb 50f 45f
3:18  -  2 mph 1029.1mb 50f 45f
3:12 1 2 mph 1029.1mb 50f 45f
3:06  -  1 mph 1029.2mb 50f 45f
3:00  -  3 mph 1029.2mb 50f 46f
2:54  -  2 mph 1029.3mb 50f 46f
2:48 1 2 mph 1029.3mb 50f 46f
2:42 2 6 mph 1029.4mb 50f 46f
2:36  -  2 mph 1029.5mb 50f 46f
2:30 3 5 mph 1029.5mb 50f 46f
2:24  -  3 mph 1029.5mb 50f 46f
2:18 1 3 mph 1029.6mb 50f 46f
2:12  -  2 mph 1029.6mb 50f 47f
2:06 1
mph
1029.7mb 50f 47f
2:00  -  1 mph 1029.7mb 50f 47f
1:54  -  1 mph 1029.7mb 50f 47f
1:48  -  2 mph 1029.8mb 50f 47f
1:42 2 3 mph 1029.8mb 50f 47f
1:36  -  2 mph 1029.8mb 50f 48f
1:30 2 3 mph 1029.8mb 50f 48f
1:24 2
mph
1029.8mb 50f 48f
1:18 1 3 mph 1029.8mb 50f 48f
1:12 2 3 mph 1029.8mb 50f 47f
1:06 2 3 mph 1029.8mb 50f 47f
1:00 3 5 mph 1029.7mb 50f 48f
12:54 3 5 mph 1029.7mb 50f 48f
12:48 2 5 mph 1029.7mb 50f 48f
12:42 3 5 mph 1029.6mb 50f 48f
12:36 2 3 mph 1029.6mb 51f 48f
12:30 2 3 mph 1029.6mb 51f 48f
12:24 3
mph
1029.6mb 51f 48f
12:18 2 3 mph 1029.6mb 51f 48f
12:12 3 5 mph 1029.6mb 51f 48f
12:06 3
mph
1029.7mb 51f 48f
12:00 5
mph
1029.6mb 51f 48f
jue 04/20 11:54 2 5 mph 1029.7mb 51f 48f
11:48 3 5 mph 1029.6mb 51f 48f
11:42 2 5 mph 1029.7mb 50f 48f
11:36 3 6 mph 1029.7mb 50f 48f
11:30 3 6 mph 1029.8mb 50f 48f
11:24 3 6 mph 1029.7mb 51f 49f
11:18 5 6 mph 1029.7mb 51f 49f
11:12 3
mph
1029.7mb 51f 49f
11:06 2 3 mph 1029.7mb 50f 49f
11:00 2 3 mph 1029.6mb 50f 50f
10:54 2 3 mph 1029.6mb 50f 50f
10:48 3 6 mph - - -
10:42 5 6 mph - - -
10:36 5 6 mph - - -
10:30 5 6 mph 1029.5mb 51f 50f
10:24 2 3 mph 1029.5mb 51f 50f
10:18 1 3 mph 1029.5mb 51f 50f
10:12 2 3 mph 1029.4mb 51f 50f
10:06 2 3 mph 1029.4mb 51f 50f
10:00 2 3 mph 1029.4mb 51f 50f
9:54 2 3 mph 1029.4mb 51f 50f
9:48 2 3 mph 1029.3mb 51f 50f
9:42 2 3 mph 1029.3mb 51f 50f
9:36 2 3 mph 1029.2mb 51f 50f
9:30 3
mph
1029.1mb 51f 50f
9:24 2 3 mph 1029mb 51f 50f
9:18 1 2 mph 1029mb 51f 50f
9:06 2 6 mph 1028.8mb 51f 50f
9:00 3 5 mph 1028.8mb 51f 51f
8:54 3 6 mph 1028.7mb 51f 51f
8:48 5 7 mph 1028.6mb 51f 51f
8:42 5 6 mph 1028.5mb 51f 51f
8:36 6 9 mph 1028.5mb 51f 51f
8:30 6 9 mph 1028.4mb 51f 51f
8:24 6 8 mph 1028.3mb 51f 51f
8:18 6 8 mph 1028.4mb 51f 51f
8:12 7 9 mph 1028.4mb 51f 51f
8:06 8 11 mph 1028.4mb 51f 51f
8:00 10 13 mph 1028.3mb 51f 51f
7:54 9 11 mph 1028.1mb 51f 51f
7:48 11 14 mph 1028mb 51f 51f
7:42 8 10 mph 1028mb 51f 51f
7:36 9 11 mph 1028mb 51f 51f
7:30 9 10 mph 1027.9mb 51f 51f
7:24 9 13 mph 1027.8mb 51f 51f
7:18 9 11 mph 1027.8mb 51f 51f
7:12 8 11 mph 1027.6mb 51f 51f
7:06 9 13 mph 1027.6mb 51f 51f
7:00 11 14 mph 1027.6mb 51f 51f
6:54 11 14 mph 1027.6mb 51f 51f
6:48 13 16 mph 1027.6mb 51f 51f
6:42 13 15 mph 1027.6mb 51f 51f
6:36 11 16 mph 1027.5mb 51f 52f
6:30 13 17 mph 1027.4mb 51f 52f
6:24 14 17 mph 1027.4mb 51f 51f
6:18 14 16 mph 1027.3mb 51f 52f
6:12 14 16 mph 1027.3mb 51f 52f
6:06 13 16 mph 1027.2mb 51f 52f
6:00 14 16 mph 1027.2mb 51f 52f
5:54 13 16 mph 1027.3mb 51f 52f
5:48 10 14 mph 1027.2mb 51f 52f
5:42 11 14 mph 1027.1mb 51f 52f
5:36 10 15 mph 1027.1mb 51f 52f
5:30 11 14 mph 1027mb 51f 52f
5:24 11 15 mph 1027.1mb 51f 52f
5:18 13 15 mph 1027.1mb 51f 52f
5:12 10 16 mph 1027.1mb 51f 52f
5:06 13 16 mph 1027.1mb 51f 52f
5:00 11 14 mph 1027mb 52f 52f
4:54 13 16 mph 1026.9mb 52f 52f
4:48 15 17 mph 1026.8mb 51f 52f
4:42 11 14 mph 1026.7mb 51f 51f
4:30 13 15 mph 1026.7mb 51f 52f
4:24 10 14 mph 1026.6mb 51f 52f
4:18 14 15 mph 1026.6mb 51f 52f
4:12 11 14 mph 1026.6mb 51f 52f
4:06 10 17 mph 1026.5mb 51f 52f
4:00 11 16 mph 1026.4mb 51f 51f
3:54 11 15 mph 1026.4mb 51f 52f
3:48 11 18 mph 1026.4mb 51f 51f
3:42 15 18 mph 1026.3mb 51f 52f
3:36 11 21 mph 1026.3mb 51f 52f
3:30 13 14 mph 1026.3mb 51f 52f
3:24 11 14 mph 1026.3mb 51f 51f
3:18 13 17 mph 1026.2mb 51f 51f
3:12 13 17 mph 1026.2mb 51f 51f
3:06 15 20 mph 1026.1mb 51f 50f
3:00 15 21 mph 1026.1mb 51f 50f
2:54 16 21 mph 1026.1mb 51f 50f
2:48 17 22 mph 1026mb 51f 50f
2:42 16 23 mph 1025.8mb 51f 52f
2:36 16 22 mph 1025.6mb 51f 53f
2:30 14 18 mph 1025.5mb 51f 53f
2:24 15 20 mph 1025.4mb 50f 53f
2:18 15 18 mph 1025.3mb 50f 53f
2:12 10 20 mph 1025.2mb 50f 53f
2:06 11 21 mph 1025.1mb 50f 53f
2:00 14 17 mph 1025.1mb 50f 53f
1:54 14 21 mph 1025mb 50f 53f
1:48 16 21 mph 1025mb 50f 53f
1:42 11 18 mph 1025mb 50f 52f
1:36 14 18 mph 1024.9mb 50f 53f
1:30 15 20 mph 1024.9mb 50f 52f
1:24 11 18 mph 1024.8mb 50f 52f
1:18 14 20 mph 1024.8mb 50f 52f
1:12 15 16 mph 1024.8mb 50f 52f
1:06 14 18 mph 1024.7mb 50f 52f
1:00 11 16 mph 1024.7mb 50f 52f
12:54 14 17 mph 1024.6mb 50f 52f
12:48 11 16 mph 1024.6mb 50f 52f
12:42 13 21 mph 1024.5mb 50f 52f
12:36 11 17 mph 1024.4mb 50f 51f
12:30 9 14 mph 1024.4mb 50f 51f
12:24 13 22 mph 1024.3mb 50f 50f
12:18 14 20 mph 1024.3mb 50f 51f
12:12 10 13 mph 1024.2mb 50f 52f
12:06 10 14 mph 1024.2mb 50f 52f
12:00 11 17 mph 1024.2mb 50f 52f
11:54 15 18 mph 1024.1mb 50f 52f
11:48 10 15 mph 1024mb 50f 52f
11:42 9 14 mph 1024mb 50f 51f
11:36 10 15 mph 1024mb 50f 51f
11:30 10 16 mph 1024mb 50f 51f
11:24 10 13 mph 1023.9mb 50f 51f
11:18 9 11 mph 1023.7mb 50f 51f
11:12 1 6 mph 1023.6mb 50f 50f
11:06 5 9 mph 1023.4mb 50f 50f
11:00 8 11 mph 1023.4mb 50f 49f
10:54 3 8 mph 1023.4mb 50f 49f
10:48 6 9 mph 1023.4mb 50f 48f
10:42 5 8 mph 1023.2mb 50f 48f
10:36 5 6 mph 1023.2mb 50f 48f
10:30 6 9 mph 1023.1mb 50f 48f
10:24 2 7 mph 1023.1mb 50f 48f
10:18 5 8 mph 1023mb 50f 48f
10:12 6 8 mph 1022.9mb 50f 48f
10:06 5 8 mph 1022.9mb 50f 48f
10:00 5 7 mph 1022.7mb 50f 47f
9:54 2 5 mph 1022.7mb 50f 48f
9:48 2 6 mph 1022.6mb 50f 48f
9:42 2 5 mph 1022.6mb 50f 48f
9:36 3 7 mph 1022.4mb 50f 47f
9:30 2 8 mph 1022.3mb 50f 48f
9:24 3 6 mph 1022.3mb 50f 47f
9:18 2 7 mph 1022.2mb 50f 47f
9:12 1 7 mph 1022.1mb 50f 47f
9:06 5 6 mph 1022.1mb 50f 47f
9:00 3 6 mph 1022mb 50f 47f
8:54 2 3 mph 1021.9mb 50f 47f
8:48 1 5 mph 1021.9mb 50f 47f
8:42 2 6 mph 1021.8mb 50f 47f
8:36 3 6 mph 1021.8mb 50f 47f
8:30 1 2 mph 1021.8mb 50f 47f
8:24 2 5 mph 1021.7mb 50f 47f
8:18 3 7 mph 1021.7mb 50f 46f
8:12 3 5 mph 1021.7mb 50f 46f
8:06 3 6 mph 1021.7mb 50f 46f
8:00 5 7 mph 1021.7mb 50f 47f
7:54 5 7 mph 1021.6mb 50f 47f
7:48 6 9 mph 1021.6mb 50f 47f
7:42 5 7 mph 1021.6mb 50f 47f
7:36 1 3 mph 1021.4mb 50f 47f
7:30 2 6 mph 1021.3mb 50f 47f
7:24 1 7 mph 1021.2mb 50f 47f
7:18 5 8 mph 1021.1mb 50f 47f
7:12 5 9 mph 1021mb 50f 47f
7:06 2 6 mph 1020.9mb 50f 47f
7:00 2 3 mph 1020.8mb 50f 47f
6:54 1 5 mph 1020.8mb 50f 47f
6:48 2 6 mph 1020.7mb 50f 47f
6:42 3 5 mph 1020.6mb 50f 46f
6:36 2 3 mph 1020.6mb 50f 46f
6:30 2
mph
1020.6mb 50f 46f
6:24 1 3 mph 1020.5mb 50f 46f
6:18 2 3 mph 1020.4mb 50f 46f
6:12 1 2 mph 1020.3mb 50f 46f
6:06 2 5 mph 1020.2mb 50f 46f
6:00 3 6 mph 1020.2mb 50f 46f
5:54 3 5 mph 1020.1mb 50f 46f
5:48 2 5 mph 1020mb 50f 46f
5:42 3 5 mph 1019.9mb 50f 46f
5:36 2 3 mph 1019.7mb 50f 46f
5:30 2 3 mph 1019.6mb 50f 46f
5:24 3 5 mph 1019.6mb 50f 46f
5:18 3 6 mph 1019.5mb 50f 46f
5:12 5 7 mph 1019.5mb 50f 46f
5:06 6
mph
1019.4mb 50f 46f
5:00 5 7 mph 1019.4mb 50f 46f
4:54 6
mph
1019.4mb 50f 45f
4:48 6 7 mph 1019.4mb 50f 46f
4:42 6 7 mph 1019.3mb 50f 46f
4:36 6 7 mph 1019.3mb 50f 46f
4:30 6 7 mph 1019.2mb 50f 46f
4:24 6 7 mph 1019.2mb 50f 46f
4:18 6 8 mph 1019.1mb 50f 46f
4:12 6 7 mph 1019.1mb 50f 46f
4:06 3 7 mph 1019.1mb 50f 46f
4:00 5 7 mph 1019.1mb 50f 46f
3:54 6 8 mph 1019.1mb 50f 46f
3:48 6 7 mph 1019.1mb 50f 46f
3:42 5 7 mph 1019mb 50f 46f